createdAt,value
2018-06-20T00:00:27.930Z,0.00
2018-06-20T00:01:27.933Z,0.00
2018-06-20T00:02:27.943Z,0.00
2018-06-20T00:03:27.957Z,0.00
2018-06-20T00:04:27.975Z,0.00
2018-06-20T00:05:27.994Z,0.00
2018-06-20T00:06:28.000Z,0.00
2018-06-20T00:07:28.080Z,0.00
2018-06-20T00:08:28.025Z,0.00
2018-06-20T00:09:28.073Z,0.00
2018-06-20T00:10:28.046Z,0.00
2018-06-20T00:11:28.062Z,0.00
2018-06-20T00:12:28.073Z,0.00
2018-06-20T00:13:28.098Z,0.00
2018-06-20T00:14:28.115Z,0.00
2018-06-20T00:16:28.123Z,0.00
2018-06-20T00:17:28.146Z,0.00
2018-06-20T00:18:28.150Z,0.00
2018-06-20T00:19:28.193Z,0.00
2018-06-20T00:20:28.171Z,0.00
2018-06-20T00:21:28.180Z,0.00
2018-06-20T00:22:28.202Z,0.00
2018-06-20T00:23:28.222Z,0.00
2018-06-20T00:24:28.229Z,0.00
2018-06-20T00:25:28.243Z,0.00
2018-06-20T00:26:28.246Z,0.00
2018-06-20T00:27:28.265Z,0.00
2018-06-20T00:28:28.282Z,0.00
2018-06-20T00:29:28.283Z,0.00
2018-06-20T00:30:28.301Z,0.00
2018-06-20T00:31:28.315Z,0.00
2018-06-20T00:32:28.337Z,0.00
2018-06-20T00:34:28.353Z,0.00
2018-06-20T00:35:28.363Z,0.00
2018-06-20T00:36:28.377Z,0.00
2018-06-20T00:37:28.388Z,0.00
2018-06-20T00:38:28.398Z,0.00
2018-06-20T00:39:28.409Z,0.00
2018-06-20T00:40:28.426Z,0.00
2018-06-20T00:41:28.452Z,0.00
2018-06-20T00:42:28.459Z,0.00
2018-06-20T00:43:28.471Z,0.00
2018-06-20T00:44:28.483Z,0.00
2018-06-20T00:45:28.493Z,0.00
2018-06-20T00:46:28.507Z,0.00
2018-06-20T00:47:28.509Z,0.00
2018-06-20T00:49:28.544Z,0.00
2018-06-20T00:50:28.561Z,0.00
2018-06-20T00:51:28.574Z,0.00
2018-06-20T00:52:28.583Z,0.00
2018-06-20T00:53:28.586Z,0.00
2018-06-20T00:54:28.603Z,0.00
2018-06-20T00:55:28.611Z,0.00
2018-06-20T00:56:28.627Z,0.00
2018-06-20T00:57:28.639Z,0.00
2018-06-20T00:58:28.651Z,0.00
2018-06-20T00:59:28.664Z,0.00
2018-06-20T01:00:28.673Z,0.00
2018-06-20T01:01:28.686Z,0.00
2018-06-20T01:02:28.696Z,0.00
2018-06-20T01:03:28.709Z,0.00
2018-06-20T01:04:28.729Z,0.00
2018-06-20T01:05:28.778Z,0.00
2018-06-20T01:06:28.762Z,0.00
2018-06-20T01:07:28.767Z,0.00
2018-06-20T01:08:28.791Z,0.00
2018-06-20T01:09:28.798Z,0.00
2018-06-20T01:10:28.812Z,0.00
2018-06-20T01:11:28.887Z,0.00
2018-06-20T01:12:28.830Z,0.00
2018-06-20T01:13:28.846Z,0.00
2018-06-20T01:14:28.849Z,0.00
2018-06-20T01:15:28.857Z,0.00
2018-06-20T01:16:28.874Z,0.00
2018-06-20T01:17:28.883Z,0.00
2018-06-20T01:18:28.909Z,0.00
2018-06-20T01:19:28.952Z,0.00
2018-06-20T01:20:28.922Z,0.00
2018-06-20T01:21:28.961Z,0.00
2018-06-20T01:22:28.942Z,0.00
2018-06-20T01:23:28.976Z,0.00
2018-06-20T01:25:28.991Z,0.00
2018-06-20T01:26:29.021Z,0.00
2018-06-20T01:27:29.018Z,0.00
2018-06-20T01:28:29.023Z,0.00
2018-06-20T01:29:29.038Z,0.00
2018-06-20T01:31:29.134Z,0.00
2018-06-20T01:32:29.071Z,0.00
2018-06-20T01:33:29.083Z,0.00
2018-06-20T01:34:29.094Z,0.00
2018-06-20T01:35:29.101Z,0.00
2018-06-20T01:36:29.130Z,0.00
2018-06-20T01:37:29.129Z,0.00
2018-06-20T01:38:29.152Z,0.00
2018-06-20T01:39:29.153Z,0.00
2018-06-20T01:40:29.196Z,0.00
2018-06-20T01:41:29.208Z,0.00
2018-06-20T01:42:29.212Z,0.00
2018-06-20T01:43:29.222Z,0.00
2018-06-20T01:44:29.234Z,0.00
2018-06-20T01:45:29.240Z,0.00
2018-06-20T01:46:29.255Z,0.00
2018-06-20T01:47:29.264Z,0.00
2018-06-20T01:48:29.268Z,0.00
2018-06-20T01:49:29.272Z,0.00
2018-06-20T01:50:29.291Z,0.00
2018-06-20T01:51:29.300Z,0.00
2018-06-20T01:52:29.314Z,0.00
2018-06-20T01:53:29.338Z,0.00
2018-06-20T01:54:29.350Z,0.00
2018-06-20T01:55:29.355Z,0.00
2018-06-20T01:56:29.375Z,0.00
2018-06-20T01:57:29.378Z,0.00
2018-06-20T01:58:29.381Z,0.00
2018-06-20T01:59:29.478Z,0.00
2018-06-20T02:00:29.434Z,0.00
2018-06-20T02:01:29.448Z,0.00
2018-06-20T02:02:29.445Z,0.00
2018-06-20T02:03:29.451Z,0.00
2018-06-20T02:04:29.462Z,0.00
2018-06-20T02:05:29.481Z,0.00
2018-06-20T02:06:29.489Z,0.00
2018-06-20T02:07:29.500Z,0.00
2018-06-20T02:08:29.515Z,0.00
2018-06-20T02:09:29.522Z,0.00
2018-06-20T02:10:29.536Z,0.00
2018-06-20T02:11:29.546Z,0.00
2018-06-20T02:12:29.565Z,0.00
2018-06-20T02:13:29.569Z,0.00
2018-06-20T02:14:29.577Z,0.00
2018-06-20T02:15:29.599Z,0.00
2018-06-20T02:16:29.604Z,0.00
2018-06-20T02:17:29.627Z,0.00
2018-06-20T02:18:29.642Z,0.00
2018-06-20T02:19:29.656Z,0.00
2018-06-20T02:20:29.652Z,0.00
2018-06-20T02:21:29.681Z,0.00
2018-06-20T02:22:29.686Z,0.00
2018-06-20T02:23:29.690Z,0.00
2018-06-20T02:24:29.702Z,0.00
2018-06-20T02:25:29.710Z,0.00
2018-06-20T02:26:29.725Z,0.00
2018-06-20T02:27:29.739Z,0.00
2018-06-20T02:28:29.758Z,0.00
2018-06-20T02:29:29.757Z,0.00
2018-06-20T02:30:29.788Z,0.00
2018-06-20T02:31:29.790Z,0.00
2018-06-20T02:32:29.797Z,0.00
2018-06-20T02:33:29.811Z,0.00
2018-06-20T02:34:29.833Z,0.00
2018-06-20T02:35:29.838Z,0.00
2018-06-20T02:36:29.851Z,0.00
2018-06-20T02:37:29.870Z,0.00
2018-06-20T02:38:29.872Z,0.00
2018-06-20T02:39:29.882Z,0.00
2018-06-20T02:40:29.894Z,0.00
2018-06-20T02:41:29.902Z,0.00
2018-06-20T02:42:29.916Z,0.00
2018-06-20T02:43:29.937Z,0.00
2018-06-20T02:44:29.952Z,0.00
2018-06-20T02:45:29.958Z,0.00
2018-06-20T02:46:29.976Z,0.00
2018-06-20T02:47:29.981Z,0.00
2018-06-20T02:48:29.996Z,0.00
2018-06-20T02:49:30.000Z,0.00
2018-06-20T02:50:30.018Z,0.00
2018-06-20T02:51:30.028Z,0.00
2018-06-20T02:52:30.035Z,0.00
2018-06-20T02:53:30.047Z,0.00
2018-06-20T02:54:30.058Z,4.00
2018-06-20T02:55:30.076Z,4.00
2018-06-20T02:56:30.090Z,4.00
2018-06-20T02:57:30.095Z,0.00
2018-06-20T02:58:30.110Z,4.00
2018-06-20T02:59:30.124Z,4.00
2018-06-20T03:00:30.140Z,4.00
2018-06-20T03:01:30.141Z,4.00
2018-06-20T03:02:30.164Z,4.00
2018-06-20T03:03:30.164Z,4.00
2018-06-20T03:04:30.181Z,8.00
2018-06-20T03:05:30.186Z,8.00
2018-06-20T03:06:30.205Z,8.00
2018-06-20T03:07:30.214Z,8.00
2018-06-20T03:08:30.233Z,12.00
2018-06-20T03:09:30.239Z,12.00
2018-06-20T03:10:30.251Z,16.00
2018-06-20T03:11:30.261Z,16.00
2018-06-20T03:12:30.279Z,16.00
2018-06-20T03:13:30.285Z,16.00
2018-06-20T03:14:30.293Z,16.00
2018-06-20T03:15:30.312Z,20.00
2018-06-20T03:16:30.323Z,24.00
2018-06-20T03:17:30.335Z,28.00
2018-06-20T03:18:30.350Z,28.00
2018-06-20T03:19:30.376Z,32.00
2018-06-20T03:20:30.378Z,32.00
2018-06-20T03:21:30.380Z,36.00
2018-06-20T03:22:30.392Z,36.00
2018-06-20T03:23:30.413Z,40.00
2018-06-20T03:24:30.422Z,44.00
2018-06-20T03:25:30.421Z,48.00
2018-06-20T03:26:30.437Z,52.00
2018-06-20T03:27:30.449Z,56.00
2018-06-20T03:28:30.464Z,56.00
2018-06-20T03:29:30.483Z,64.00
2018-06-20T03:30:30.487Z,68.00
2018-06-20T03:31:30.501Z,68.00
2018-06-20T03:32:30.552Z,72.00
2018-06-20T03:33:30.522Z,80.00
2018-06-20T03:34:30.539Z,80.00
2018-06-20T03:35:30.537Z,84.00
2018-06-20T03:36:30.562Z,92.00
2018-06-20T03:37:30.569Z,96.00
2018-06-20T03:38:30.580Z,100.00
2018-06-20T03:39:30.603Z,104.00
2018-06-20T03:40:30.602Z,108.00
2018-06-20T03:41:30.626Z,112.00
2018-06-20T03:42:30.698Z,116.00
2018-06-20T03:43:30.635Z,124.00
2018-06-20T03:44:30.649Z,124.00
2018-06-20T03:45:30.661Z,132.00
2018-06-20T03:46:30.673Z,136.00
2018-06-20T03:47:30.678Z,140.00
2018-06-20T03:48:30.697Z,144.00
2018-06-20T03:49:30.709Z,152.00
2018-06-20T03:50:30.723Z,156.00
2018-06-20T03:51:30.748Z,160.00
2018-06-20T03:52:30.759Z,164.00
2018-06-20T03:53:30.763Z,168.00
2018-06-20T03:54:30.771Z,176.00
2018-06-20T03:55:30.779Z,176.00
2018-06-20T03:56:30.793Z,184.00
2018-06-20T03:57:30.806Z,188.00
2018-06-20T03:58:30.816Z,192.00
2018-06-20T03:59:30.828Z,196.00
2018-06-20T04:00:30.839Z,200.00
2018-06-20T04:01:30.845Z,204.00
2018-06-20T04:02:30.858Z,208.00
2018-06-20T04:03:30.873Z,212.00
2018-06-20T04:04:30.914Z,216.00
2018-06-20T04:05:30.896Z,220.00
2018-06-20T04:06:30.906Z,228.00
2018-06-20T04:07:30.937Z,228.00
2018-06-20T04:08:30.943Z,232.00
2018-06-20T04:09:30.946Z,236.00
2018-06-20T04:10:30.957Z,240.00
2018-06-20T04:11:30.964Z,244.00
2018-06-20T04:12:30.979Z,248.00
2018-06-20T04:13:30.991Z,252.00
2018-06-20T04:14:30.997Z,256.00
2018-06-20T04:15:31.018Z,256.00
2018-06-20T04:16:31.026Z,264.00
2018-06-20T04:17:31.039Z,268.00
2018-06-20T04:18:31.052Z,268.00
2018-06-20T04:19:31.059Z,272.00
2018-06-20T04:20:31.068Z,276.00
2018-06-20T04:21:31.078Z,280.00
2018-06-20T04:22:31.096Z,280.00
2018-06-20T04:23:31.103Z,284.00
2018-06-20T04:24:31.117Z,288.00
2018-06-20T04:25:31.134Z,292.00
2018-06-20T04:26:31.157Z,296.00
2018-06-20T04:27:31.162Z,296.00
2018-06-20T04:28:31.171Z,300.00
2018-06-20T04:29:31.172Z,304.00
2018-06-20T04:30:31.236Z,304.00
2018-06-20T04:31:31.206Z,308.00
2018-06-20T04:32:31.212Z,312.00
2018-06-20T04:33:31.225Z,312.00
2018-06-20T04:34:31.273Z,316.00
2018-06-20T04:35:31.249Z,320.00
2018-06-20T04:36:31.262Z,324.00
2018-06-20T04:37:31.269Z,324.00
2018-06-20T04:38:31.283Z,328.00
2018-06-20T04:39:31.289Z,328.00
2018-06-20T04:40:31.396Z,336.00
2018-06-20T04:41:31.316Z,336.00
2018-06-20T04:42:31.331Z,336.00
2018-06-20T04:43:31.369Z,340.00
2018-06-20T04:44:31.413Z,348.00
2018-06-20T04:45:31.368Z,348.00
2018-06-20T04:46:31.373Z,348.00
2018-06-20T04:47:31.397Z,352.00
2018-06-20T04:48:31.410Z,356.00
2018-06-20T04:49:31.415Z,356.00
2018-06-20T04:50:31.424Z,360.00
2018-06-20T04:51:31.474Z,364.00
2018-06-20T04:52:31.498Z,364.00
2018-06-20T04:53:31.462Z,368.00
2018-06-20T04:54:31.480Z,364.00
2018-06-20T04:55:31.553Z,368.00
2018-06-20T04:56:31.494Z,368.00
2018-06-20T04:57:31.511Z,372.00
2018-06-20T04:58:31.535Z,372.00
2018-06-20T04:59:31.543Z,372.00
2018-06-20T05:00:31.541Z,380.00
2018-06-20T05:01:31.560Z,380.00
2018-06-20T05:02:31.578Z,380.00
2018-06-20T05:03:31.580Z,380.00
2018-06-20T05:04:31.588Z,384.00
2018-06-20T05:05:31.650Z,388.00
2018-06-20T05:06:31.614Z,388.00
2018-06-20T05:07:31.630Z,392.00
2018-06-20T05:08:31.639Z,388.00
2018-06-20T05:09:31.662Z,392.00
2018-06-20T05:10:31.667Z,392.00
2018-06-20T05:11:31.675Z,396.00
2018-06-20T05:12:31.692Z,396.00
2018-06-20T05:13:31.693Z,396.00
2018-06-20T05:14:31.712Z,400.00
2018-06-20T05:15:31.722Z,404.00
2018-06-20T05:16:31.739Z,404.00
2018-06-20T05:17:31.747Z,404.00
2018-06-20T05:18:31.750Z,408.00
2018-06-20T05:19:31.776Z,408.00
2018-06-20T05:20:31.785Z,412.00
2018-06-20T05:21:31.794Z,408.00
2018-06-20T05:22:31.845Z,412.00
2018-06-20T05:23:31.824Z,412.00
2018-06-20T05:24:31.832Z,412.00
2018-06-20T05:25:31.843Z,416.00
2018-06-20T05:26:31.891Z,416.00
2018-06-20T05:27:31.874Z,420.00
2018-06-20T05:28:31.883Z,424.00
2018-06-20T05:29:31.884Z,424.00
2018-06-20T05:30:31.900Z,428.00
2018-06-20T05:31:31.921Z,428.00
2018-06-20T05:32:32.104Z,428.00
2018-06-20T05:33:32.082Z,432.00
2018-06-20T05:34:31.957Z,432.00
2018-06-20T05:35:31.966Z,432.00
2018-06-20T05:36:31.988Z,436.00
2018-06-20T05:37:31.987Z,436.00
2018-06-20T05:38:31.995Z,436.00
2018-06-20T05:39:32.019Z,440.00
2018-06-20T05:40:32.021Z,444.00
2018-06-20T05:41:32.072Z,440.00
2018-06-20T05:42:32.045Z,444.00
2018-06-20T05:43:32.079Z,444.00
2018-06-20T05:44:32.080Z,440.00
2018-06-20T05:45:32.084Z,444.00
2018-06-20T05:46:32.094Z,444.00
2018-06-20T05:47:32.106Z,444.00
2018-06-20T05:48:32.125Z,448.00
2018-06-20T05:49:32.128Z,444.00
2018-06-20T05:50:32.162Z,448.00
2018-06-20T05:51:32.158Z,448.00
2018-06-20T05:52:32.182Z,448.00
2018-06-20T05:53:32.181Z,448.00
2018-06-20T05:54:32.194Z,452.00
2018-06-20T05:55:32.219Z,448.00
2018-06-20T05:56:32.216Z,452.00
2018-06-20T05:57:32.240Z,452.00
2018-06-20T05:58:32.244Z,452.00
2018-06-20T05:59:32.262Z,452.00
2018-06-20T06:00:32.277Z,456.00
2018-06-20T06:01:32.282Z,456.00
2018-06-20T06:02:32.304Z,456.00
2018-06-20T06:03:32.307Z,456.00
2018-06-20T06:04:32.321Z,460.00
2018-06-20T06:05:32.331Z,460.00
2018-06-20T06:06:32.438Z,460.00
2018-06-20T06:07:32.350Z,464.00
2018-06-20T06:08:32.363Z,460.00
2018-06-20T06:09:32.395Z,460.00
2018-06-20T06:10:32.400Z,464.00
2018-06-20T06:11:32.413Z,464.00
2018-06-20T06:12:32.426Z,468.00
2018-06-20T06:13:32.434Z,468.00
2018-06-20T06:14:32.442Z,472.00
2018-06-20T06:15:32.456Z,472.00
2018-06-20T06:16:32.466Z,472.00
2018-06-20T06:17:37.516Z,472.00
2018-06-20T06:18:32.493Z,476.00
2018-06-20T06:19:32.506Z,472.00
2018-06-20T06:20:32.516Z,476.00
2018-06-20T06:21:32.612Z,476.00
2018-06-20T06:22:32.536Z,476.00
2018-06-20T06:23:32.554Z,480.00
2018-06-20T06:24:32.563Z,480.00
2018-06-20T06:25:32.606Z,480.00
2018-06-20T06:26:32.594Z,484.00
2018-06-20T06:27:32.614Z,484.00
2018-06-20T06:28:32.625Z,484.00
2018-06-20T06:29:32.641Z,484.00
2018-06-20T06:30:32.674Z,484.00
2018-06-20T06:31:32.658Z,484.00
2018-06-20T06:32:32.687Z,488.00
2018-06-20T06:33:32.681Z,488.00
2018-06-20T06:34:32.706Z,492.00
2018-06-20T06:35:32.706Z,492.00
2018-06-20T06:36:32.719Z,492.00
2018-06-20T06:37:32.744Z,492.00
2018-06-20T06:38:32.746Z,496.00
2018-06-20T06:39:32.761Z,496.00
2018-06-20T06:40:32.777Z,500.00
2018-06-20T06:41:32.786Z,496.00
2018-06-20T06:42:32.802Z,500.00
2018-06-20T06:43:32.811Z,500.00
2018-06-20T06:44:32.825Z,500.00
2018-06-20T06:45:32.835Z,500.00
2018-06-20T06:46:32.855Z,504.00
2018-06-20T06:47:32.861Z,504.00
2018-06-20T06:48:32.879Z,504.00
2018-06-20T06:49:32.976Z,508.00
2018-06-20T06:50:32.903Z,508.00
2018-06-20T06:51:32.936Z,508.00
2018-06-20T06:52:32.938Z,508.00
2018-06-20T06:53:32.944Z,512.00
2018-06-20T06:54:32.954Z,508.00
2018-06-20T06:55:32.960Z,512.00
2018-06-20T06:56:32.981Z,516.00
2018-06-20T06:57:32.987Z,516.00
2018-06-20T06:58:33.003Z,512.00
2018-06-20T06:59:33.025Z,516.00
2018-06-20T07:00:33.027Z,516.00
2018-06-20T07:01:33.051Z,520.00
2018-06-20T07:02:33.061Z,516.00
2018-06-20T07:03:33.064Z,520.00
2018-06-20T07:04:33.083Z,520.00
2018-06-20T07:05:33.094Z,520.00
2018-06-20T07:06:33.099Z,524.00
2018-06-20T07:07:33.121Z,524.00
2018-06-20T07:08:33.128Z,524.00
2018-06-20T07:09:33.144Z,524.00
2018-06-20T07:10:33.166Z,528.00
2018-06-20T07:11:33.176Z,528.00
2018-06-20T07:12:33.179Z,532.00
2018-06-20T07:13:33.195Z,528.00
2018-06-20T07:14:33.226Z,532.00
2018-06-20T07:15:33.258Z,532.00
2018-06-20T07:16:33.243Z,532.00
2018-06-20T07:17:33.269Z,536.00
2018-06-20T07:20:00.368Z,536.00
2018-06-20T07:20:00.820Z,536.00
2018-06-20T07:21:00.823Z,536.00
2018-06-20T07:22:00.827Z,540.00
2018-06-20T07:23:00.861Z,540.00
2018-06-20T07:24:00.908Z,540.00
2018-06-20T07:25:00.874Z,544.00
2018-06-20T07:26:00.917Z,544.00
2018-06-20T07:27:00.889Z,544.00
2018-06-20T07:28:00.934Z,544.00
2018-06-20T07:29:00.941Z,548.00
2018-06-20T07:30:01.097Z,548.00
2018-06-20T07:31:00.959Z,552.00
2018-06-20T07:32:00.962Z,552.00
2018-06-20T07:33:00.979Z,552.00
2018-06-20T07:34:01.084Z,552.00
2018-06-20T07:35:01.015Z,556.00
2018-06-20T07:36:01.155Z,556.00
2018-06-20T07:37:01.030Z,560.00
2018-06-20T07:38:01.150Z,560.00
2018-06-20T07:39:01.054Z,564.00
2018-06-20T07:40:01.081Z,564.00
2018-06-20T07:41:01.073Z,564.00
2018-06-20T07:42:01.096Z,564.00
2018-06-20T07:43:01.102Z,564.00
2018-06-20T07:44:01.161Z,568.00
2018-06-20T07:45:01.176Z,568.00
2018-06-20T07:46:01.436Z,568.00
2018-06-20T07:47:01.220Z,576.00
2018-06-20T07:48:01.169Z,576.00
2018-06-20T07:49:01.193Z,576.00
2018-06-20T07:50:01.304Z,576.00
2018-06-20T07:51:01.231Z,580.00
2018-06-20T07:52:01.233Z,580.00
2018-06-20T07:53:01.236Z,580.00
2018-06-20T07:54:01.265Z,580.00
2018-06-20T07:55:01.268Z,584.00
2018-06-20T07:56:01.315Z,588.00
2018-06-20T07:57:01.306Z,588.00
2018-06-20T07:58:01.314Z,592.00
2018-06-20T07:59:01.330Z,588.00
2018-06-20T08:00:01.358Z,592.00
2018-06-20T08:01:01.403Z,592.00
2018-06-20T08:02:01.362Z,592.00
2018-06-20T08:03:01.375Z,596.00
2018-06-20T08:04:01.407Z,596.00
2018-06-20T08:05:01.408Z,600.00
2018-06-20T08:06:01.418Z,596.00
2018-06-20T08:07:01.440Z,596.00
2018-06-20T08:08:01.447Z,596.00
2018-06-20T08:09:01.459Z,600.00
2018-06-20T08:10:01.473Z,604.00
2018-06-20T08:11:01.486Z,604.00
2018-06-20T08:12:01.682Z,608.00
2018-06-20T08:13:01.528Z,608.00
2018-06-20T08:14:01.528Z,612.00
2018-06-20T08:15:01.544Z,612.00
2018-06-20T08:16:01.555Z,616.00
2018-06-20T08:17:01.568Z,616.00
2018-06-20T08:18:01.577Z,620.00
2018-06-20T08:19:01.767Z,620.00
2018-06-20T08:20:01.610Z,620.00
2018-06-20T08:21:01.633Z,624.00
2018-06-20T08:22:01.651Z,624.00
2018-06-20T08:23:01.648Z,628.00
2018-06-20T08:24:01.672Z,628.00
2018-06-20T08:25:01.676Z,632.00
2018-06-20T08:26:01.694Z,632.00
2018-06-20T08:27:01.702Z,628.00
2018-06-20T08:28:01.730Z,632.00
2018-06-20T08:29:01.734Z,636.00
2018-06-20T08:30:01.750Z,636.00
2018-06-20T08:31:01.758Z,636.00
2018-06-20T08:32:01.771Z,640.00
2018-06-20T08:33:01.782Z,636.00
2018-06-20T08:34:01.813Z,640.00
2018-06-20T08:35:01.832Z,640.00
2018-06-20T08:36:01.822Z,644.00
2018-06-20T08:37:01.848Z,644.00
2018-06-20T08:38:01.852Z,648.00
2018-06-20T08:39:01.866Z,648.00
2018-06-20T08:40:01.921Z,652.00
2018-06-20T08:41:01.901Z,652.00
2018-06-20T08:42:01.908Z,660.00
2018-06-20T08:43:01.929Z,660.00
2018-06-20T08:44:01.942Z,660.00
2018-06-20T08:45:01.961Z,664.00
2018-06-20T08:46:01.970Z,668.00
2018-06-20T08:47:01.984Z,672.00
2018-06-20T08:48:02.002Z,672.00
2018-06-20T08:49:02.018Z,676.00
2018-06-20T08:50:02.025Z,680.00
2018-06-20T08:51:02.039Z,680.00
2018-06-20T08:52:02.049Z,680.00
2018-06-20T08:53:02.127Z,680.00
2018-06-20T08:54:02.075Z,680.00
2018-06-20T08:55:02.132Z,684.00
2018-06-20T08:56:02.108Z,684.00
2018-06-20T08:57:02.124Z,688.00
2018-06-20T08:58:02.136Z,688.00
2018-06-20T08:59:02.156Z,692.00
2018-06-20T09:00:02.165Z,696.00
2018-06-20T09:01:02.172Z,700.00
2018-06-20T09:02:02.204Z,704.00
2018-06-20T09:03:02.207Z,704.00
2018-06-20T09:04:02.234Z,704.00
2018-06-20T09:05:02.240Z,704.00
2018-06-20T09:06:02.247Z,708.00
2018-06-20T09:07:02.274Z,708.00
2018-06-20T09:08:02.274Z,712.00
2018-06-20T09:09:02.290Z,716.00
2018-06-20T09:10:02.303Z,724.00
2018-06-20T09:11:02.321Z,728.00
2018-06-20T09:12:02.335Z,732.00
2018-06-20T09:13:02.353Z,736.00
2018-06-20T09:14:02.367Z,740.00
2018-06-20T09:15:02.382Z,736.00
2018-06-20T09:16:02.391Z,740.00
2018-06-20T09:17:02.407Z,740.00
2018-06-20T09:18:02.423Z,748.00
2018-06-20T09:19:02.433Z,752.00
2018-06-20T09:20:02.443Z,756.00
2018-06-20T09:21:02.465Z,764.00
2018-06-20T09:22:02.519Z,764.00
2018-06-20T09:23:02.500Z,764.00
2018-06-20T09:24:02.522Z,764.00
2018-06-20T09:25:02.530Z,768.00
2018-06-20T09:26:02.535Z,768.00
2018-06-20T09:27:02.544Z,772.00
2018-06-20T09:28:02.569Z,776.00
2018-06-20T09:29:02.590Z,784.00
2018-06-20T09:30:02.657Z,788.00
2018-06-20T09:31:02.622Z,804.00
2018-06-20T09:32:02.628Z,816.00
2018-06-20T09:33:02.633Z,816.00
2018-06-20T09:34:02.647Z,808.00
2018-06-20T09:35:02.666Z,808.00
2018-06-20T09:36:02.677Z,804.00
2018-06-20T09:37:02.689Z,816.00
2018-06-20T09:38:02.703Z,820.00
2018-06-20T09:39:02.718Z,824.00
2018-06-20T09:40:02.734Z,824.00
2018-06-20T09:41:02.762Z,828.00
2018-06-20T09:42:02.770Z,824.00
2018-06-20T09:43:02.784Z,820.00
2018-06-20T09:44:02.798Z,824.00
2018-06-20T09:45:02.807Z,824.00
2018-06-20T09:46:02.816Z,824.00
2018-06-20T09:47:02.839Z,824.00
2018-06-20T09:48:02.861Z,824.00
2018-06-20T09:49:02.869Z,832.00
2018-06-20T09:50:02.888Z,844.00
2018-06-20T09:51:02.895Z,844.00
2018-06-20T09:52:02.907Z,848.00
2018-06-20T09:53:02.923Z,840.00
2018-06-20T09:54:02.954Z,836.00
2018-06-20T09:55:02.965Z,836.00
2018-06-20T09:56:02.962Z,836.00
2018-06-20T09:57:02.979Z,840.00
2018-06-20T09:58:03.002Z,844.00
2018-06-20T09:59:03.019Z,844.00
2018-06-20T10:00:03.031Z,848.00
2018-06-20T10:01:03.040Z,856.00
2018-06-20T10:02:03.051Z,860.00
2018-06-20T10:03:03.065Z,864.00
2018-06-20T10:04:03.084Z,864.00
2018-06-20T10:05:03.114Z,864.00
2018-06-20T10:06:03.135Z,868.00
2018-06-20T10:07:03.125Z,872.00
2018-06-20T10:08:03.142Z,880.00
2018-06-20T10:09:03.161Z,880.00
2018-06-20T10:10:03.171Z,880.00
2018-06-20T10:11:03.185Z,884.00
2018-06-20T10:12:03.200Z,888.00
2018-06-20T10:13:03.207Z,888.00
2018-06-20T10:14:03.229Z,896.00
2018-06-20T10:15:03.236Z,900.00
2018-06-20T10:16:03.259Z,896.00
2018-06-20T10:17:03.307Z,896.00
2018-06-20T10:18:03.287Z,912.00
2018-06-20T10:19:03.340Z,912.00
2018-06-20T10:20:03.357Z,916.00
2018-06-20T10:21:03.397Z,920.00
2018-06-20T10:22:03.353Z,924.00
2018-06-20T10:23:03.363Z,928.00
2018-06-20T10:24:03.377Z,944.00
2018-06-20T10:25:03.385Z,948.00
2018-06-20T10:26:03.401Z,952.00
2018-06-20T10:27:03.424Z,960.00
2018-06-20T10:28:03.432Z,960.00
2018-06-20T10:29:03.445Z,968.00
2018-06-20T10:30:03.464Z,968.00
2018-06-20T10:31:03.485Z,976.00
2018-06-20T10:32:03.520Z,988.00
2018-06-20T10:33:03.519Z,1008.00
2018-06-20T10:34:03.527Z,1004.00
2018-06-20T10:35:03.537Z,1000.00
2018-06-20T10:36:03.557Z,1000.00
2018-06-20T10:37:03.567Z,1000.00
2018-06-20T10:38:03.577Z,1000.00
2018-06-20T10:39:03.598Z,1008.00
2018-06-20T10:40:03.655Z,1012.00
2018-06-20T10:41:03.633Z,1024.00
2018-06-20T10:42:03.748Z,1032.00
2018-06-20T10:43:03.659Z,1040.00
2018-06-20T10:44:03.672Z,1052.00
2018-06-20T10:45:03.684Z,1064.00
2018-06-20T10:46:03.799Z,1080.00
2018-06-20T10:47:03.714Z,1084.00
2018-06-20T10:48:03.728Z,1104.00
2018-06-20T10:49:03.748Z,1128.00
2018-06-20T10:50:03.761Z,1128.00
2018-06-20T10:51:03.774Z,1136.00
2018-06-20T10:52:03.807Z,1144.00
2018-06-20T10:53:03.812Z,1144.00
2018-06-20T10:54:03.826Z,1172.00
2018-06-20T10:55:03.828Z,1196.00
2018-06-20T10:56:03.849Z,1196.00
2018-06-20T10:57:03.979Z,1212.00
2018-06-20T10:58:03.901Z,1212.00
2018-06-20T10:59:03.903Z,1220.00
2018-06-20T11:00:03.916Z,1224.00
2018-06-20T11:01:03.925Z,1228.00
2018-06-20T11:02:03.947Z,1240.00
2018-06-20T11:03:03.961Z,1256.00
2018-06-20T11:04:03.983Z,1272.00
2018-06-20T11:05:03.999Z,1292.00
2018-06-20T11:06:03.996Z,1324.00
2018-06-20T11:07:04.020Z,1356.00
2018-06-20T11:08:04.034Z,1412.00
2018-06-20T11:09:04.051Z,1436.00
2018-06-20T11:10:04.064Z,1472.00
2018-06-20T11:11:04.079Z,1508.00
2018-06-20T11:12:04.097Z,1640.00
2018-06-20T11:13:04.119Z,1856.00
2018-06-20T11:14:04.121Z,2368.00
2018-06-20T11:15:04.152Z,3032.00
2018-06-20T11:16:04.155Z,3652.00
2018-06-20T11:17:04.176Z,3396.00
2018-06-20T11:18:04.187Z,3480.00
2018-06-20T11:19:04.205Z,3616.00
2018-06-20T11:20:04.235Z,3640.00
2018-06-20T11:21:04.264Z,3548.00
2018-06-20T11:22:04.269Z,3420.00
2018-06-20T11:23:04.286Z,3408.00
2018-06-20T11:24:04.326Z,3572.00
2018-06-20T11:25:04.321Z,3584.00
2018-06-20T11:26:04.338Z,4012.00
2018-06-20T11:27:04.358Z,3868.00
2018-06-20T11:28:04.377Z,4004.00
2018-06-20T11:29:04.415Z,4176.00
2018-06-20T11:30:04.419Z,4256.00
2018-06-20T11:31:04.497Z,4416.00
2018-06-20T11:32:04.466Z,4668.00
2018-06-20T11:33:04.486Z,5128.00
2018-06-20T11:34:04.502Z,6596.00
2018-06-20T11:35:33.465Z,6676.00
2018-06-20T11:36:04.552Z,7816.00
2018-06-20T11:37:04.567Z,6640.00
2018-06-20T11:38:04.591Z,7596.00
2018-06-20T11:39:04.605Z,7760.00
2018-06-20T11:40:04.708Z,7052.00
2018-06-20T11:41:04.653Z,6532.00
2018-06-20T11:42:04.685Z,7068.00
2018-06-20T11:43:04.715Z,6180.00
2018-06-20T11:44:04.734Z,5604.00
2018-06-20T11:45:04.752Z,6892.00
2018-06-20T11:46:04.779Z,7576.00
2018-06-20T11:47:04.810Z,7160.00
2018-06-20T11:48:04.873Z,6916.00
2018-06-20T11:49:04.860Z,7576.00
2018-06-20T11:50:04.866Z,8588.00
2018-06-20T11:51:04.885Z,7792.00
2018-06-20T11:52:04.922Z,7808.00
2018-06-20T11:53:04.939Z,10224.00
2018-06-20T11:54:04.999Z,9772.00
2018-06-20T11:55:04.992Z,9632.00
2018-06-20T11:56:05.014Z,9412.00
2018-06-20T11:57:05.043Z,11020.00
2018-06-20T11:58:05.138Z,10504.00
2018-06-20T11:59:05.096Z,10852.00
2018-06-20T12:00:05.131Z,11180.00
2018-06-20T12:01:05.160Z,11344.00
2018-06-20T12:02:05.180Z,11616.00
2018-06-20T12:03:05.210Z,12008.00
2018-06-20T12:04:05.245Z,12068.00
2018-06-20T12:05:05.293Z,12264.00
2018-06-20T12:06:05.353Z,12352.00
2018-06-20T12:07:05.321Z,12580.00
2018-06-20T12:08:05.370Z,12652.00
2018-06-20T12:09:05.389Z,12628.00
2018-06-20T12:10:05.430Z,12780.00
2018-06-20T12:11:05.452Z,12888.00
2018-06-20T12:12:05.484Z,12876.00
2018-06-20T12:13:05.500Z,12952.00
2018-06-20T12:14:05.542Z,12944.00
2018-06-20T12:15:05.686Z,13028.00
2018-06-20T12:16:05.604Z,12996.00
2018-06-20T12:17:05.633Z,13012.00
2018-06-20T12:18:05.666Z,13024.00
2018-06-20T12:19:05.688Z,13056.00
2018-06-20T12:20:05.718Z,13048.00
2018-06-20T12:21:05.753Z,13080.00
2018-06-20T12:22:05.794Z,13156.00
2018-06-20T12:24:05.849Z,13148.00
2018-06-20T12:25:05.886Z,13152.00
2018-06-20T12:26:05.913Z,13224.00
2018-06-20T12:27:05.950Z,13208.00
2018-06-20T12:28:05.983Z,13240.00
2018-06-20T12:29:06.004Z,13264.00
2018-06-20T12:30:06.049Z,13316.00
2018-06-20T12:31:06.075Z,13268.00
2018-06-20T12:32:06.154Z,13332.00
2018-06-20T12:33:06.135Z,13348.00
2018-06-20T12:34:06.159Z,13336.00
2018-06-20T12:35:06.203Z,13356.00
2018-06-20T12:36:06.234Z,13376.00
2018-06-20T12:37:06.370Z,13376.00
2018-06-20T12:38:06.300Z,13440.00
2018-06-20T12:39:06.329Z,13496.00
2018-06-20T12:40:06.367Z,13600.00
2018-06-20T12:41:06.401Z,13840.00
2018-06-20T12:42:06.465Z,14220.00